createdAt,value
2023-05-08T00:01:06.618Z,1.70
2023-05-08T00:03:34.720Z,1.67
2023-05-08T00:06:06.514Z,2.00
2023-05-08T00:11:02.311Z,2.08
2023-05-08T00:13:48.999Z,1.60
2023-05-08T00:16:17.241Z,2.42
2023-05-08T00:18:45.356Z,2.58
2023-05-08T00:21:13.298Z,2.22
2023-05-08T00:23:41.648Z,1.88
2023-05-08T00:26:09.689Z,2.30
2023-05-08T00:28:37.994Z,1.95
2023-05-08T00:31:06.097Z,1.73
2023-05-08T00:33:34.054Z,2.10
2023-05-08T00:36:03.448Z,2.15
2023-05-08T00:38:33.191Z,1.63
2023-05-08T00:41:02.028Z,1.52
2023-05-08T00:43:30.518Z,1.85
2023-05-08T00:46:17.973Z,2.00
2023-05-08T00:48:47.494Z,2.22
2023-05-08T00:51:16.534Z,2.40
2023-05-08T00:53:45.587Z,3.58
2023-05-08T00:56:15.845Z,1.85
2023-05-08T00:58:45.881Z,1.95
2023-05-08T01:01:14.589Z,2.63
2023-05-08T01:03:44.005Z,2.42
2023-05-08T01:06:12.231Z,2.38
2023-05-08T01:08:40.705Z,2.08
2023-05-08T01:11:22.143Z,2.33
2023-05-08T01:13:53.147Z,1.98
2023-05-08T01:16:44.541Z,2.10
2023-05-08T01:19:39.283Z,2.00
2023-05-08T01:22:31.601Z,1.73
2023-05-08T01:25:41.003Z,2.42
2023-05-08T01:28:48.242Z,2.30
2023-05-08T01:31:30.982Z,1.85
2023-05-08T01:34:21.799Z,2.95
2023-05-08T01:36:51.403Z,3.45
2023-05-08T01:39:40.378Z,2.40
2023-05-08T01:42:33.214Z,2.28
2023-05-08T01:45:05.637Z,2.65
2023-05-08T01:47:38.364Z,2.17
2023-05-08T01:50:16.804Z,1.80
2023-05-08T01:52:51.658Z,1.63
2023-05-08T01:55:31.088Z,2.08
2023-05-08T01:58:00.162Z,1.75
2023-05-08T02:00:31.625Z,1.50
2023-05-08T02:03:01.160Z,2.92
2023-05-08T02:05:30.568Z,1.88
2023-05-08T02:07:59.517Z,2.20
2023-05-08T02:10:29.500Z,2.35
2023-05-08T02:16:04.766Z,1.60
2023-05-08T02:18:33.826Z,2.28
2023-05-08T02:21:05.342Z,1.80
2023-05-08T02:23:35.292Z,1.60
2023-05-08T02:26:04.925Z,2.80
2023-05-08T02:28:34.018Z,1.98
2023-05-08T02:31:03.175Z,2.22
2023-05-08T02:33:32.279Z,2.10
2023-05-08T02:36:01.482Z,1.80
2023-05-08T02:38:52.205Z,1.85
2023-05-08T02:41:23.533Z,1.77
2023-05-08T02:43:55.014Z,1.90
2023-05-08T02:49:11.182Z,1.90
2023-05-08T02:51:57.948Z,2.25
2023-05-08T02:54:54.134Z,2.45
2023-05-08T02:57:31.664Z,1.40
2023-05-08T03:00:24.909Z,2.28
2023-05-08T03:03:00.528Z,1.70
2023-05-08T03:05:38.864Z,1.75
2023-05-08T03:08:17.512Z,1.60
2023-05-08T03:10:49.547Z,2.15
2023-05-08T03:13:20.836Z,2.25
2023-05-08T03:15:55.738Z,1.63
2023-05-08T03:18:47.620Z,1.85
2023-05-08T03:21:20.032Z,1.50
2023-05-08T03:23:50.025Z,1.75
2023-05-08T03:26:22.597Z,1.67
2023-05-08T03:28:52.945Z,1.92
2023-05-08T03:31:25.201Z,1.85
2023-05-08T03:34:14.177Z,1.88
2023-05-08T03:36:42.964Z,1.95
2023-05-08T03:39:11.663Z,1.73
2023-05-08T03:41:40.940Z,2.10
2023-05-08T03:44:28.802Z,1.98
2023-05-08T03:46:58.773Z,1.63
2023-05-08T03:49:29.945Z,1.60
2023-05-08T03:51:59.100Z,1.55
2023-05-08T03:54:28.730Z,1.98
2023-05-08T03:59:51.420Z,1.45
2023-05-08T04:02:28.988Z,1.50
2023-05-08T04:05:21.216Z,2.30
2023-05-08T04:07:59.992Z,1.90
2023-05-08T04:10:42.699Z,1.98
2023-05-08T04:13:16.276Z,1.83
2023-05-08T04:16:20.393Z,2.17
2023-05-08T04:18:51.117Z,1.27
2023-05-08T04:21:25.395Z,1.75
2023-05-08T04:23:58.020Z,2.35
2023-05-08T04:26:27.371Z,1.58
2023-05-08T04:28:58.205Z,2.22
2023-05-08T04:31:27.968Z,2.95
2023-05-08T04:34:15.305Z,1.40
2023-05-08T04:36:43.876Z,2.00
2023-05-08T04:39:12.072Z,2.00
2023-05-08T04:41:40.321Z,2.13
2023-05-08T04:44:08.549Z,2.60
2023-05-08T04:46:36.644Z,2.15
2023-05-08T04:49:05.210Z,2.53
2023-05-08T04:51:33.634Z,2.38
2023-05-08T04:54:02.141Z,2.55
2023-05-08T04:56:30.643Z,2.03
2023-05-08T04:58:58.710Z,2.72
2023-05-08T05:01:26.954Z,2.03
2023-05-08T05:04:13.711Z,2.63
2023-05-08T05:06:42.509Z,2.00
2023-05-08T05:09:11.992Z,2.10
2023-05-08T05:14:25.973Z,2.90
2023-05-08T05:16:54.102Z,2.05
2023-05-08T05:19:22.219Z,1.75
2023-05-08T05:21:50.426Z,1.88
2023-05-08T05:24:18.535Z,1.85
2023-05-08T05:29:32.994Z,1.48
2023-05-08T05:32:02.965Z,2.88
2023-05-08T05:34:31.168Z,1.63
2023-05-08T05:36:59.257Z,1.60
2023-05-08T05:39:28.152Z,1.60
2023-05-08T05:42:15.206Z,2.88
2023-05-08T05:44:44.103Z,2.15
2023-05-08T05:47:12.701Z,1.98
2023-05-08T05:49:46.988Z,1.52
2023-05-08T05:52:15.374Z,1.48
2023-05-08T05:54:44.058Z,1.52
2023-05-08T05:57:14.155Z,2.25
2023-05-08T05:59:43.644Z,1.75
2023-05-08T06:02:18.982Z,2.33
2023-05-08T06:04:47.842Z,2.03
2023-05-08T06:07:15.865Z,1.70
2023-05-08T06:09:43.922Z,1.85
2023-05-08T06:12:12.423Z,2.40
2023-05-08T06:14:40.675Z,1.63
2023-05-08T06:17:08.827Z,2.08
2023-05-08T06:19:56.886Z,1.90
2023-05-08T06:22:25.945Z,1.48
2023-05-08T06:24:54.009Z,2.30
2023-05-08T06:27:22.868Z,1.95
2023-05-08T06:29:53.403Z,2.30
2023-05-08T06:32:22.109Z,1.83
2023-05-08T06:34:50.402Z,3.03
2023-05-08T06:37:18.472Z,1.80
2023-05-08T06:39:47.751Z,2.00
2023-05-08T06:42:17.168Z,3.20
2023-05-08T06:44:47.114Z,2.03
2023-05-08T06:47:15.150Z,2.20
2023-05-08T06:49:43.167Z,2.42
2023-05-08T06:52:11.207Z,2.00
2023-05-08T06:54:39.423Z,1.80
2023-05-08T06:57:08.970Z,1.90
2023-05-08T06:59:37.195Z,2.25
2023-05-08T07:02:05.228Z,2.05
2023-05-08T07:04:33.404Z,2.20
2023-05-08T07:07:01.511Z,2.08
2023-05-08T07:09:29.596Z,2.05
2023-05-08T07:11:57.602Z,2.30
2023-05-08T07:14:25.761Z,2.70
2023-05-08T07:16:53.814Z,2.45
2023-05-08T07:19:22.701Z,2.53
2023-05-08T07:21:51.451Z,1.92
2023-05-08T07:24:19.560Z,1.80
2023-05-08T07:26:47.644Z,2.30
2023-05-08T07:32:01.118Z,1.90
2023-05-08T07:34:29.202Z,2.30
2023-05-08T07:36:57.360Z,2.38
2023-05-08T07:39:25.488Z,2.58
2023-05-08T07:41:53.993Z,1.52
2023-05-08T07:44:51.052Z,1.90
2023-05-08T07:47:22.601Z,2.45
2023-05-08T07:52:36.276Z,1.85
2023-05-08T07:55:04.778Z,1.90
2023-05-08T07:57:40.423Z,1.77
2023-05-08T08:00:10.816Z,1.63
2023-05-08T08:02:45.856Z,1.90
2023-05-08T08:05:14.316Z,1.50
2023-05-08T08:07:42.553Z,1.48
2023-05-08T08:10:10.835Z,1.40
2023-05-08T08:12:39.388Z,1.60
2023-05-08T08:15:08.090Z,1.40
2023-05-08T08:17:36.863Z,1.80
2023-05-08T08:20:05.616Z,1.38
2023-05-08T08:22:33.891Z,1.88
2023-05-08T08:25:02.088Z,1.73
2023-05-08T08:27:30.407Z,1.88
2023-05-08T08:30:18.571Z,2.05
2023-05-08T08:32:47.251Z,1.95
2023-05-08T08:35:15.811Z,1.38
2023-05-08T08:37:44.779Z,1.73
2023-05-08T08:40:13.221Z,1.63
2023-05-08T08:42:42.002Z,2.13
2023-05-08T08:45:11.460Z,2.20
2023-05-08T08:47:43.364Z,2.40
2023-05-08T08:50:14.700Z,1.75
2023-05-08T08:53:22.475Z,1.90
2023-05-08T08:55:54.098Z,2.05
2023-05-08T08:58:25.871Z,2.30
2023-05-08T09:00:56.430Z,2.28
2023-05-08T09:03:24.696Z,2.28
2023-05-08T09:05:53.954Z,2.58
2023-05-08T09:08:22.214Z,2.20
2023-05-08T09:10:50.221Z,2.05
2023-05-08T09:13:19.944Z,2.38
2023-05-08T09:15:50.448Z,1.73
2023-05-08T09:18:19.522Z,2.10
2023-05-08T09:20:48.275Z,2.10
2023-05-08T09:23:18.305Z,2.88
2023-05-08T09:25:48.959Z,2.00
2023-05-08T09:28:22.629Z,2.17
2023-05-08T09:30:58.896Z,2.97
2023-05-08T09:33:28.943Z,2.58
2023-05-08T09:35:58.148Z,2.80
2023-05-08T09:38:37.333Z,2.40
2023-05-08T09:41:16.553Z,2.20
2023-05-08T09:44:00.217Z,2.10
2023-05-08T09:46:28.756Z,2.60
2023-05-08T09:49:01.898Z,2.42
2023-05-08T09:51:32.255Z,2.42
2023-05-08T09:54:00.865Z,3.35
2023-05-08T09:59:24.697Z,3.03
2023-05-08T10:02:12.455Z,2.30
2023-05-08T10:04:59.388Z,2.70
2023-05-08T10:07:34.606Z,2.53
2023-05-08T10:10:04.964Z,2.20
2023-05-08T10:12:33.915Z,2.42
2023-05-08T10:15:01.906Z,2.72
2023-05-08T10:17:44.254Z,2.20
2023-05-08T10:20:16.072Z,2.45
2023-05-08T10:22:44.645Z,2.30
2023-05-08T10:25:20.833Z,2.92
2023-05-08T10:27:55.206Z,2.53
2023-05-08T10:30:44.838Z,2.20
2023-05-08T10:33:15.926Z,2.00
2023-05-08T10:35:46.032Z,1.90
2023-05-08T10:38:16.865Z,2.50
2023-05-08T10:40:45.525Z,2.10
2023-05-08T10:43:14.896Z,2.05
2023-05-08T10:45:43.866Z,2.50
2023-05-08T10:48:20.615Z,2.70
2023-05-08T10:54:02.979Z,2.30
2023-05-08T10:56:31.042Z,2.33
2023-05-08T10:58:59.956Z,2.35
2023-05-08T11:01:28.472Z,2.03
2023-05-08T11:03:57.008Z,2.40
2023-05-08T11:06:45.882Z,1.90
2023-05-08T11:09:22.565Z,2.30
2023-05-08T11:11:59.859Z,2.08
2023-05-08T11:14:57.841Z,2.35
2023-05-08T11:17:54.426Z,3.10
2023-05-08T11:20:39.789Z,2.35
2023-05-08T11:23:27.618Z,2.28
2023-05-08T11:26:04.704Z,2.70
2023-05-08T11:28:53.138Z,2.08
2023-05-08T11:31:21.621Z,1.83
2023-05-08T11:33:50.254Z,2.67
2023-05-08T11:36:22.533Z,2.20
2023-05-08T11:39:13.575Z,2.47
2023-05-08T11:41:42.056Z,2.65
2023-05-08T11:44:20.063Z,1.85
2023-05-08T11:46:56.167Z,2.10
2023-05-08T11:49:29.584Z,2.42
2023-05-08T11:52:00.059Z,2.45
2023-05-08T11:54:31.225Z,2.00
2023-05-08T11:56:59.915Z,1.90
2023-05-08T11:59:28.061Z,2.05
2023-05-08T12:02:07.545Z,2.08
2023-05-08T12:04:48.800Z,2.10
2023-05-08T12:07:17.174Z,1.80
2023-05-08T12:09:47.324Z,2.28
2023-05-08T12:12:15.569Z,2.75
2023-05-08T12:14:43.700Z,2.20
2023-05-08T12:17:12.021Z,2.92
2023-05-08T12:19:40.277Z,2.67
2023-05-08T12:22:09.830Z,2.03
2023-05-08T12:24:39.626Z,2.13
2023-05-08T12:27:08.077Z,2.22
2023-05-08T12:29:37.425Z,2.88
2023-05-08T12:32:05.697Z,2.25
2023-05-08T12:34:33.856Z,2.95
2023-05-08T12:37:05.837Z,4.07
2023-05-08T12:39:37.973Z,3.45
2023-05-08T12:42:06.280Z,2.80
2023-05-08T12:44:34.376Z,2.80
2023-05-08T12:47:02.811Z,1.83
2023-05-08T12:52:19.536Z,2.75
2023-05-08T12:54:48.883Z,2.47
2023-05-08T12:57:18.812Z,2.00
2023-05-08T12:59:47.553Z,1.80
2023-05-08T13:02:18.157Z,1.73
2023-05-08T13:04:46.774Z,2.20
2023-05-08T13:07:15.385Z,1.67
2023-05-08T13:09:57.422Z,1.85
2023-05-08T13:12:25.876Z,1.60
2023-05-08T13:14:53.883Z,1.70
2023-05-08T13:17:22.075Z,1.90
2023-05-08T13:19:50.144Z,1.45
2023-05-08T13:22:18.353Z,1.25
2023-05-08T13:24:46.354Z,2.45
2023-05-08T13:27:15.002Z,1.98
2023-05-08T13:29:43.057Z,1.90
2023-05-08T13:32:11.299Z,1.60
2023-05-08T13:34:44.269Z,1.35
2023-05-08T13:37:18.358Z,1.73
2023-05-08T13:39:46.368Z,1.73
2023-05-08T13:42:14.435Z,1.60
2023-05-08T13:44:42.505Z,1.42
2023-05-08T13:47:13.575Z,1.35
2023-05-08T13:49:41.790Z,1.55
2023-05-08T13:52:09.839Z,1.80
2023-05-08T13:54:39.024Z,1.80
2023-05-08T13:57:08.395Z,2.25
2023-05-08T13:59:43.205Z,1.48
2023-05-08T14:02:11.518Z,1.30
2023-05-08T14:04:40.184Z,1.25
2023-05-08T14:07:08.303Z,1.40
2023-05-08T14:09:36.405Z,1.25
2023-05-08T14:12:04.596Z,1.80
2023-05-08T14:14:34.381Z,1.75
2023-05-08T14:17:03.131Z,1.42
2023-05-08T14:19:31.516Z,1.58
2023-05-08T14:21:59.974Z,1.60
2023-05-08T14:24:28.070Z,2.15
2023-05-08T14:26:56.294Z,1.27
2023-05-08T14:29:24.441Z,1.40
2023-05-08T14:31:52.760Z,1.75
2023-05-08T14:34:20.902Z,1.85
2023-05-08T14:36:48.991Z,2.30
2023-05-08T14:39:17.086Z,2.10
2023-05-08T14:41:59.419Z,2.38
2023-05-08T14:44:33.497Z,2.20
2023-05-08T14:47:01.794Z,2.38
2023-05-08T14:49:37.448Z,2.22
2023-05-08T14:52:07.533Z,1.88
2023-05-08T14:54:36.115Z,2.17
2023-05-08T14:57:04.846Z,1.90
2023-05-08T14:59:33.111Z,1.90
2023-05-08T15:02:04.588Z,2.25
2023-05-08T15:04:33.325Z,1.80
2023-05-08T15:07:01.502Z,1.65
2023-05-08T15:09:29.719Z,1.42
2023-05-08T15:12:07.145Z,1.92
2023-05-08T15:14:35.525Z,1.63
2023-05-08T15:17:04.324Z,1.70
2023-05-08T15:19:38.383Z,1.55
2023-05-08T15:25:17.075Z,1.65
2023-05-08T15:27:45.600Z,1.27
2023-05-08T15:30:24.552Z,1.02
2023-05-08T15:32:55.916Z,1.20
2023-05-08T15:35:24.150Z,1.40
2023-05-08T15:37:52.663Z,1.23
2023-05-08T15:40:20.915Z,1.58
2023-05-08T15:42:49.227Z,1.27
2023-05-08T15:45:35.973Z,1.55
2023-05-08T15:48:04.490Z,1.90
2023-05-08T15:50:33.835Z,1.33
2023-05-08T15:53:02.018Z,2.28
2023-05-08T15:55:33.105Z,1.77
2023-05-08T15:58:01.288Z,1.80
2023-05-08T16:00:43.335Z,2.22
2023-05-08T16:03:13.223Z,2.25
2023-05-08T16:05:41.368Z,1.95
2023-05-08T16:08:13.252Z,1.98
2023-05-08T16:10:42.499Z,1.85
2023-05-08T16:13:10.750Z,1.90
2023-05-08T16:15:38.967Z,2.30
2023-05-08T16:18:07.858Z,1.63
2023-05-08T16:20:36.490Z,2.03
2023-05-08T16:23:04.683Z,1.90
2023-05-08T16:25:32.844Z,2.08
2023-05-08T16:28:01.004Z,2.03
2023-05-08T16:30:29.124Z,1.50
2023-05-08T16:32:57.161Z,1.98
2023-05-08T16:35:25.283Z,1.75
2023-05-08T16:37:53.531Z,2.05
2023-05-08T16:40:21.568Z,2.03
2023-05-08T16:43:09.041Z,1.73
2023-05-08T16:45:37.297Z,2.20
2023-05-08T16:48:05.506Z,1.58
2023-05-08T16:50:53.320Z,1.75
2023-05-08T16:53:21.435Z,1.67
2023-05-08T16:55:49.503Z,2.03
2023-05-08T16:58:17.693Z,2.10
2023-05-08T17:00:45.854Z,1.63
2023-05-08T17:03:14.041Z,1.77
2023-05-08T17:05:42.242Z,2.15
2023-05-08T17:08:11.971Z,2.38
2023-05-08T17:13:25.646Z,2.10
2023-05-08T17:15:53.910Z,2.05
2023-05-08T17:18:22.058Z,1.90
2023-05-08T17:20:51.050Z,2.65
2023-05-08T17:23:19.180Z,1.67
2023-05-08T17:25:47.411Z,1.58
2023-05-08T17:28:15.622Z,1.88
2023-05-08T17:30:45.361Z,2.13
2023-05-08T17:33:14.467Z,1.60
2023-05-08T17:35:42.716Z,1.45
2023-05-08T17:38:29.425Z,1.63
2023-05-08T17:40:57.530Z,1.50
2023-05-08T17:43:28.821Z,1.60
2023-05-08T17:48:25.728Z,1.40
2023-05-08T17:51:13.642Z,1.38
2023-05-08T17:53:41.887Z,1.90
2023-05-08T17:56:10.270Z,2.10
2023-05-08T17:58:38.564Z,1.50
2023-05-08T18:01:07.188Z,1.95
2023-05-08T18:03:35.437Z,1.73
2023-05-08T18:06:03.552Z,1.58
2023-05-08T18:08:31.629Z,1.50
2023-05-08T18:10:59.804Z,1.63
2023-05-08T18:13:28.000Z,1.60
2023-05-08T18:15:56.182Z,2.13
2023-05-08T18:18:24.498Z,1.52
2023-05-08T18:20:52.547Z,1.88
2023-05-08T18:23:22.444Z,1.60
2023-05-08T18:25:50.506Z,2.38
2023-05-08T18:28:18.675Z,1.75
2023-05-08T18:30:46.962Z,1.55
2023-05-08T18:33:15.440Z,1.65
2023-05-08T18:35:43.523Z,1.90
2023-05-08T18:38:11.706Z,1.65
2023-05-08T18:40:40.038Z,1.83
2023-05-08T18:43:08.148Z,2.30
2023-05-08T18:45:42.069Z,1.55
2023-05-08T18:48:10.893Z,1.60
2023-05-08T18:50:39.277Z,1.30
2023-05-08T18:53:26.034Z,1.50
2023-05-08T18:55:54.276Z,1.55
2023-05-08T18:58:22.815Z,1.70
2023-05-08T19:00:50.985Z,1.80
2023-05-08T19:03:19.200Z,1.67
2023-05-08T19:05:47.540Z,1.90
2023-05-08T19:08:16.269Z,1.63
2023-05-08T19:10:44.690Z,1.80
2023-05-08T19:13:12.891Z,1.80
2023-05-08T19:16:00.018Z,2.33
2023-05-08T19:18:30.126Z,1.67
2023-05-08T19:20:58.339Z,1.70
2023-05-08T19:23:26.478Z,1.77
2023-05-08T19:25:54.897Z,1.55
2023-05-08T19:28:23.071Z,1.50
2023-05-08T19:30:51.454Z,1.55
2023-05-08T19:33:21.093Z,1.40
2023-05-08T19:35:49.525Z,1.98
2023-05-08T19:38:17.617Z,2.17
2023-05-08T19:40:56.709Z,1.95
2023-05-08T19:43:26.871Z,1.90
2023-05-08T19:45:56.330Z,1.85
2023-05-08T19:48:24.936Z,1.80
2023-05-08T19:50:55.007Z,1.70
2023-05-08T19:53:24.064Z,1.88
2023-05-08T19:55:52.641Z,1.52
2023-05-08T19:58:20.878Z,2.10
2023-05-08T20:00:51.646Z,2.10
2023-05-08T20:03:39.108Z,1.55
2023-05-08T20:06:07.299Z,1.20
2023-05-08T20:08:35.490Z,1.55
2023-05-08T20:11:04.466Z,1.70
2023-05-08T20:13:32.621Z,2.00
2023-05-08T20:16:00.811Z,1.38
2023-05-08T20:18:28.915Z,1.55
2023-05-08T20:20:57.035Z,2.30
2023-05-08T20:23:25.233Z,2.13
2023-05-08T20:25:54.892Z,2.00
2023-05-08T20:28:26.454Z,1.35
2023-05-08T20:33:22.811Z,2.58
2023-05-08T20:35:50.947Z,1.73
2023-05-08T20:38:19.225Z,1.88
2023-05-08T20:40:47.419Z,2.08
2023-05-08T20:43:17.152Z,2.35
2023-05-08T20:45:45.462Z,2.72
2023-05-08T20:48:13.611Z,1.65
2023-05-08T20:50:41.815Z,1.85
2023-05-08T20:53:09.935Z,0.82
2023-05-08T20:55:38.698Z,1.55
2023-05-08T20:58:25.440Z,2.55
2023-05-08T21:03:39.073Z,1.67
2023-05-08T21:06:07.240Z,1.45
2023-05-08T21:08:36.289Z,0.77
2023-05-08T21:11:04.373Z,0.63
2023-05-08T21:13:32.602Z,1.27
2023-05-08T21:16:00.747Z,1.48
2023-05-08T21:18:28.885Z,1.60
2023-05-08T21:20:57.048Z,0.70
2023-05-08T21:23:25.089Z,0.43
2023-05-08T21:25:53.368Z,0.80
2023-05-08T21:28:21.536Z,0.70
2023-05-08T21:30:49.547Z,0.70
2023-05-08T21:33:18.417Z,0.95
2023-05-08T21:35:47.874Z,1.05
2023-05-08T21:38:16.257Z,1.33
2023-05-08T21:40:49.326Z,1.40
2023-05-08T21:43:17.381Z,1.10
2023-05-08T21:45:45.581Z,1.02
2023-05-08T21:48:13.769Z,0.50
2023-05-08T21:50:41.824Z,0.30
2023-05-08T21:53:28.523Z,0.60
2023-05-08T21:55:56.613Z,0.40
2023-05-08T21:58:24.629Z,1.98
2023-05-08T22:00:52.826Z,0.70
2023-05-08T22:03:20.986Z,0.55
2023-05-08T22:06:08.072Z,0.63
2023-05-08T22:08:54.683Z,0.40
2023-05-08T22:11:22.818Z,0.75
2023-05-08T22:13:51.028Z,0.45
2023-05-08T22:16:19.079Z,1.05
2023-05-08T22:18:47.124Z,0.75
2023-05-08T22:21:15.115Z,0.70
2023-05-08T22:23:46.188Z,0.40
2023-05-08T22:26:14.386Z,0.77
2023-05-08T22:29:01.381Z,1.33
2023-05-08T22:31:29.704Z,1.17
2023-05-08T22:33:58.828Z,0.82
2023-05-08T22:36:26.946Z,1.02
2023-05-08T22:38:55.071Z,0.88
2023-05-08T22:41:23.988Z,1.20
2023-05-08T22:43:52.041Z,0.80
2023-05-08T22:46:20.287Z,0.70
2023-05-08T22:49:06.939Z,0.90
2023-05-08T22:51:36.398Z,0.98
2023-05-08T22:54:04.564Z,0.98
2023-05-08T22:56:32.703Z,0.88
2023-05-08T22:59:01.050Z,0.70
2023-05-08T23:01:29.214Z,0.75
2023-05-08T23:03:57.656Z,0.40
2023-05-08T23:06:25.738Z,0.60
2023-05-08T23:08:53.910Z,0.85
2023-05-08T23:11:22.486Z,0.77
2023-05-08T23:13:50.664Z,0.90
2023-05-08T23:16:19.292Z,1.08
2023-05-08T23:18:47.679Z,1.02
2023-05-08T23:21:15.814Z,0.90
2023-05-08T23:23:43.705Z,0.85
2023-05-08T23:26:11.828Z,0.90
2023-05-08T23:28:39.872Z,0.80
2023-05-08T23:31:07.973Z,0.90
2023-05-08T23:33:36.284Z,1.27
2023-05-08T23:36:04.733Z,1.38
2023-05-08T23:38:32.893Z,0.98
2023-05-08T23:41:01.025Z,0.93
2023-05-08T23:43:29.158Z,1.00
2023-05-08T23:45:57.360Z,1.30
2023-05-08T23:48:26.057Z,1.30
2023-05-08T23:50:54.081Z,1.25
2023-05-08T23:53:22.202Z,1.15
2023-05-08T23:55:51.215Z,1.60
2023-05-08T23:58:19.306Z,1.17
